Time;durP1;ratioP1;P1;durP2;ratioP2;P2;SDS_P1;SDS_P2;PMS_P1;PMS_P2;Temp;Humidity;BMP_temperature;BMP_pressure;BME280_temperature;BME280_humidity;BME280_pressure;Samples;Min_cycle;Max_cycle;Signal;HPM_P1;HPM_P2
2023/04/17 00:00:49;;;;;;;46.03;24.85;;;;;;;6.37;100.00;102808.59;5033702;28;20459;-69
2023/04/17 00:03:15;;;;;;;41.63;23.45;;;;;;;6.37;100.00;102815.66;5032745;28;20375;-70
2023/04/17 00:05:42;;;;;;;42.58;23.25;;;;;;;6.36;100.00;102809.53;5034031;28;20045;-68
2023/04/17 00:08:08;;;;;;;45.13;23.48;;;;;;;6.37;100.00;102815.66;5033377;28;20037;-69
2023/04/17 00:10:34;;;;;;;44.10;22.17;;;;;;;6.35;100.00;102811.31;5033622;28;20119;-70
2023/04/17 00:12:59;;;;;;;42.95;21.75;;;;;;;6.34;100.00;102814.88;5033145;28;20088;-68
2023/04/17 00:15:24;;;;;;;45.40;22.38;;;;;;;6.37;100.00;102820.97;5033587;28;20033;-68
2023/04/17 00:17:50;;;;;;;46.00;22.20;;;;;;;6.33;100.00;102815.81;5030465;28;20179;-68
2023/04/17 00:20:15;;;;;;;43.15;21.25;;;;;;;6.33;100.00;102826.38;5031955;28;20491;-68
2023/04/17 00:22:41;;;;;;;45.63;20.90;;;;;;;6.33;100.00;102825.53;5033470;28;20528;-69
2023/04/17 00:25:09;;;;;;;43.83;21.33;;;;;;;6.33;100.00;102823.72;5033151;28;20049;-68
2023/04/17 00:27:34;;;;;;;36.25;20.50;;;;;;;6.34;100.00;102814.88;5032989;28;20029;-68
2023/04/17 00:30:00;;;;;;;37.67;20.45;;;;;;;6.33;100.00;102815.81;5033154;28;20029;-68
2023/04/17 00:32:25;;;;;;;46.53;20.90;;;;;;;6.32;100.00;102813.22;5033057;28;20434;-68
2023/04/17 00:34:51;;;;;;;44.85;22.02;;;;;;;6.32;100.00;102818.50;5033036;28;20026;-69
2023/04/17 00:37:17;;;;;;;45.03;22.27;;;;;;;6.31;100.00;102816.78;5033363;28;20120;-69
2023/04/17 00:39:42;;;;;;;45.42;21.83;;;;;;;6.32;100.00;102821.16;5033416;28;20133;-69
2023/04/17 00:42:07;;;;;;;43.60;22.85;;;;;;;6.31;100.00;102819.41;5033063;28;20137;-69
2023/04/17 00:44:33;;;;;;;48.67;23.73;;;;;;;6.32;100.00;102818.50;5032824;28;20474;-69
2023/04/17 00:46:59;;;;;;;51.55;24.20;;;;;;;6.33;100.00;102812.31;5033205;28;20387;-69
2023/04/17 00:49:25;;;;;;;50.92;24.48;;;;;;;6.33;100.00;102817.59;5032903;28;20037;-69
2023/04/17 00:51:51;;;;;;;47.05;22.92;;;;;;;6.33;100.00;102814.97;5033569;28;20108;-70
2023/04/17 00:54:18;;;;;;;39.65;23.10;;;;;;;6.33;100.00;102818.44;5033025;28;20049;-70
2023/04/17 00:56:43;;;;;;;52.53;23.52;;;;;;;6.33;100.00;102821.09;5032728;28;20034;-70
2023/04/17 00:59:11;;;;;;;48.92;23.98;;;;;;;6.31;100.00;102814.97;5031426;28;20044;-67
2023/04/17 01:01:36;;;;;;;45.25;22.65;;;;;;;6.28;100.00;102809.81;5032728;28;20130;-69
2023/04/17 01:04:04;;;;;;;53.38;23.85;;;;;;;6.29;100.00;102821.28;5033552;28;20065;-69
2023/04/17 01:06:30;;;;;;;44.63;23.30;;;;;;;6.26;100.00;102814.31;5032438;28;20034;-69
2023/04/17 01:08:56;;;;;;;52.70;24.80;;;;;;;6.25;100.00;102812.59;5033082;28;20029;-69
2023/04/17 01:11:21;;;;;;;48.80;24.50;;;;;;;6.23;100.00;102817.09;5032884;28;20037;-68
2023/04/17 01:13:49;;;;;;;52.65;25.45;;;;;;;6.24;100.00;102820.59;5032287;28;20057;-69
2023/04/17 01:16:15;;;;;;;53.67;25.05;;;;;;;6.21;100.00;102813.66;5032653;28;20034;-69
2023/04/17 01:18:40;;;;;;;51.65;25.33;;;;;;;6.22;100.00;102814.53;5032569;28;20064;-69
2023/04/17 01:21:06;;;;;;;52.83;26.13;;;;;;;6.22;100.00;102825.09;5032622;28;20430;-69
2023/04/17 01:23:47;;;;;;;55.60;26.08;;;;;;;6.21;100.00;102826.88;5032585;28;20040;-69
2023/04/17 01:26:17;;;;;;;47.63;25.23;;;;;;;6.20;100.00;102817.22;5032742;28;20108;-69
2023/04/17 01:28:42;;;;;;;53.05;26.45;;;;;;;6.18;100.00;102821.72;5034494;28;20030;-68
2023/04/17 01:31:12;;;;;;;58.65;26.13;;;;;;;6.16;100.00;102819.13;5036327;28;20033;-68
2023/04/17 01:33:38;;;;;;;61.15;27.55;;;;;;;6.15;100.00;102814.78;5036686;28;20040;-68
2023/04/17 01:36:03;;;;;;;54.85;26.23;;;;;;;6.14;100.00;102818.31;5036276;28;20030;-69
2023/04/17 01:38:29;;;;;;;57.70;26.73;;;;;;;6.14;100.00;102817.47;5036207;28;20060;-68
2023/04/17 01:40:55;;;;;;;59.60;26.05;;;;;;;6.14;100.00;102812.19;5036001;28;20120;-68
2023/04/17 01:43:20;;;;;;;55.38;26.90;;;;;;;6.15;100.00;102813.88;5036765;28;20451;-69
2023/04/17 01:45:45;;;;;;;54.75;24.65;;;;;;;6.14;100.00;102820.97;5036280;28;20131;-69
2023/04/17 01:48:11;;;;;;;55.72;25.42;;;;;;;6.13;100.00;102818.38;5034854;28;20087;-68
2023/04/17 01:50:36;;;;;;;53.38;25.70;;;;;;;6.13;100.00;102821.88;5036044;28;20108;-68
2023/04/17 01:53:01;;;;;;;49.05;24.42;;;;;;;6.14;100.00;102825.41;5036092;28;20121;-68
2023/04/17 01:55:27;;;;;;;47.80;22.60;;;;;;;6.14;100.00;102822.75;5034808;28;20065;-68
2023/04/17 01:57:52;;;;;;;43.75;19.88;;;;;;;6.10;100.00;102819.38;5035640;28;20376;-68
2023/04/17 02:00:19;;;;;;;41.53;20.00;;;;;;;6.07;100.00;102816.00;5035933;28;20056;-69
2023/04/17 02:02:44;;;;;;;36.63;20.80;;;;;;;6.05;100.00;102821.34;5034461;28;20471;-69
2023/04/17 02:05:09;;;;;;;36.70;20.08;;;;;;;6.03;100.00;102823.19;5035843;28;20025;-68
2023/04/17 02:07:35;;;;;;;39.95;19.17;;;;;;;6.02;100.00;102825.88;5035574;28;20042;-68
2023/04/17 02:10:00;;;;;;;39.22;19.25;;;;;;;5.99;100.00;102825.09;5035733;28;20360;-69
2023/04/17 02:12:26;;;;;;;36.55;18.67;;;;;;;5.95;100.00;102820.81;5035759;28;20026;-68
2023/04/17 02:14:51;;;;;;;36.30;19.83;;;;;;;5.94;100.00;102826.16;5035514;28;20029;-69
2023/04/17 02:17:17;;;;;;;42.60;20.38;;;;;;;5.92;100.00;102823.56;5035525;28;20151;-68
2023/04/17 02:19:42;;;;;;;36.35;19.83;;;;;;;5.93;100.00;102827.09;5035589;28;20427;-68
2023/04/17 02:22:08;;;;;;;39.05;19.77;;;;;;;5.93;100.00;102827.09;5035508;28;20034;-68
2023/04/17 02:24:33;;;;;;;40.13;20.42;;;;;;;5.92;100.00;102826.22;5035580;28;20462;-68
2023/04/17 02:26:58;;;;;;;43.08;19.67;;;;;;;5.92;100.00;102828.84;5035111;28;20033;-68
2023/04/17 02:29:24;;;;;;;42.65;20.17;;;;;;;5.92;100.00;102823.56;5035305;28;20120;-68
2023/04/17 02:31:50;;;;;;;40.55;20.77;;;;;;;5.94;100.00;102824.38;5034238;28;20040;-68
2023/04/17 02:34:15;;;;;;;44.90;21.58;;;;;;;5.95;100.00;102817.31;5034864;28;20041;-68
2023/04/17 02:36:41;;;;;;;46.80;21.48;;;;;;;5.95;100.00;102815.50;5035158;28;20036;-68
2023/04/17 02:39:06;;;;;;;44.97;21.08;;;;;;;5.95;100.00;102818.16;5034695;28;20077;-68
2023/04/17 02:41:33;;;;;;;48.60;21.33;;;;;;;5.94;100.00;102816.47;5035021;28;20045;-69
2023/04/17 02:43:59;;;;;;;44.17;21.15;;;;;;;5.93;100.00;102812.09;5034676;28;20048;-68
2023/04/17 02:46:25;;;;;;;43.58;22.60;;;;;;;5.97;100.00;102811.09;5034590;28;20061;-67
2023/04/17 02:48:50;;;;;;;43.83;21.48;;;;;;;5.98;100.00;102810.13;5034391;28;20072;-68
2023/04/17 02:51:15;;;;;;;46.88;22.58;;;;;;;5.99;100.00;102808.38;5034892;28;20499;-68
2023/04/17 02:53:41;;;;;;;44.33;20.65;;;;;;;6.01;100.00;102806.53;5035282;28;20025;-68
2023/04/17 02:56:06;;;;;;;41.80;21.98;;;;;;;6.00;100.00;102812.72;5034706;28;20088;-68
2023/04/17 02:58:32;;;;;;;40.67;20.85;;;;;;;5.98;100.00;102809.28;5034706;28;20095;-68
2023/04/17 03:01:01;;;;;;;45.80;21.63;;;;;;;5.96;100.00;102819.03;5033455;28;20040;-68
2023/04/17 03:03:29;;;;;;;40.85;20.50;;;;;;;5.96;100.00;102825.19;5034707;28;20052;-68
2023/04/17 03:05:56;;;;;;;41.65;20.27;;;;;;;5.94;100.00;102813.81;5034452;28;20067;-68
2023/04/17 03:08:22;;;;;;;36.47;19.13;;;;;;;5.93;100.00;102817.38;5034987;28;20030;-68
2023/04/17 03:10:47;;;;;;;36.92;18.83;;;;;;;5.94;100.00;102820.88;5034385;28;20094;-69
2023/04/17 03:13:13;;;;;;;47.40;18.73;;;;;;;5.93;100.00;102819.16;5034384;28;20032;-68
2023/04/17 03:15:38;;;;;;;38.95;18.98;;;;;;;5.92;100.00;102820.06;5034312;28;20057;-69
2023/04/17 03:18:04;;;;;;;41.67;19.90;;;;;;;5.90;100.00;102817.50;5034362;28;20037;-68
2023/04/17 03:20:29;;;;;;;36.67;17.90;;;;;;;5.89;100.00;102813.13;5034356;28;20447;-68
2023/04/17 03:22:54;;;;;;;42.58;19.70;;;;;;;5.89;100.00;102820.19;5034171;28;20034;-68
2023/04/17 03:25:20;;;;;;;36.80;18.27;;;;;;;5.85;100.00;102816.78;5034526;28;20037;-68
2023/04/17 03:27:45;;;;;;;34.55;17.55;;;;;;;5.81;100.00;102813.44;5034740;28;20113;-68
2023/04/17 03:30:11;;;;;;;31.15;17.67;;;;;;;5.82;100.00;102815.16;5034054;28;20064;-68
2023/04/17 03:32:36;;;;;;;34.30;17.70;;;;;;;5.81;100.00;102817.84;5034501;28;20025;-68
2023/04/17 03:35:02;;;;;;;30.85;17.02;;;;;;;5.77;100.00;102819.75;5034292;28;20069;-68
2023/04/17 03:37:28;;;;;;;36.75;17.20;;;;;;;5.76;100.00;102818.03;5034371;28;20048;-69
2023/04/17 03:39:54;;;;;;;32.95;16.85;;;;;;;5.75;100.00;102820.75;5034348;28;20053;-69
2023/04/17 03:42:19;;;;;;;36.47;17.83;;;;;;;5.74;100.00;102830.44;5033776;28;20041;-69
2023/04/17 03:44:45;;;;;;;33.53;16.92;;;;;;;5.75;100.00;102821.59;5033581;28;20357;-69
2023/04/17 03:47:10;;;;;;;34.85;17.90;;;;;;;5.74;100.00;102822.50;5032776;28;20037;-69
2023/04/17 03:49:36;;;;;;;33.47;16.80;;;;;;;5.76;100.00;102825.09;5034024;28;20061;-69
2023/04/17 03:52:02;;;;;;;35.28;17.67;;;;;;;5.74;100.00;102826.94;5033580;28;20041;-69
2023/04/17 03:54:28;;;;;;;35.00;16.38;;;;;;;5.73;100.00;102823.44;5033938;28;20029;-69
2023/04/17 03:56:54;;;;;;;33.95;16.90;;;;;;;5.71;100.00;102824.41;5033786;28;20040;-69
2023/04/17 03:59:20;;;;;;;36.75;17.27;;;;;;;5.72;100.00;102820.84;5033698;28;20042;-69
2023/04/17 04:01:46;;;;;;;34.05;16.25;;;;;;;5.68;100.00;102820.09;5033764;28;20037;-69
2023/04/17 04:04:11;;;;;;;33.45;16.85;;;;;;;5.70;100.00;102823.53;5033484;28;20458;-69
2023/04/17 04:06:38;;;;;;;35.05;17.10;;;;;;;5.68;100.00;102822.75;5033555;28;20034;-68
2023/04/17 04:09:03;;;;;;;28.50;15.85;;;;;;;5.66;100.00;102819.31;5033405;28;20064;-69
2023/04/17 04:11:29;;;;;;;36.40;17.60;;;;;;;5.63;100.00;102828.19;5033146;28;20061;-69
2023/04/17 04:13:54;;;;;;;31.65;16.90;;;;;;;5.64;100.00;102837.84;5033487;28;20033;-69
2023/04/17 04:16:19;;;;;;;33.80;16.67;;;;;;;5.67;100.00;102828.09;5033410;28;20041;-68
2023/04/17 04:18:45;;;;;;;30.77;16.38;;;;;;;5.64;100.00;102829.94;5033176;28;20083;-69
2023/04/17 04:21:11;;;;;;;30.38;16.40;;;;;;;5.66;100.00;102832.50;5032920;28;20049;-68
2023/04/17 04:23:39;;;;;;;34.42;16.75;;;;;;;5.66;100.00;102829.88;5033335;28;20194;-68
2023/04/17 04:26:04;;;;;;;31.60;16.67;;;;;;;5.66;100.00;102835.16;5033101;28;20037;-69
2023/04/17 04:28:30;;;;;;;31.70;16.55;;;;;;;5.65;100.00;102831.63;5033617;28;20079;-69
2023/04/17 04:30:57;;;;;;;36.75;17.23;;;;;;;5.65;100.00;102836.91;5031594;28;20033;-69
2023/04/17 04:33:23;;;;;;;35.30;17.38;;;;;;;5.65;100.00;102834.28;5031852;28;20060;-68
2023/04/17 04:35:50;;;;;;;39.22;18.20;;;;;;;5.68;100.00;102832.47;5032999;28;20532;-69
2023/04/17 04:38:16;;;;;;;42.38;18.08;;;;;;;5.68;100.00;102835.09;5032568;28;20113;-69
2023/04/17 04:40:44;;;;;;;32.35;17.15;;;;;;;5.69;100.00;102844.72;5033596;28;20049;-69
2023/04/17 04:43:09;;;;;;;36.35;17.65;;;;;;;5.69;100.00;102839.44;5032537;28;20480;-69
2023/04/17 04:45:35;;;;;;;40.15;18.40;;;;;;;5.69;100.00;102845.59;5033694;28;20029;-69
2023/04/17 04:48:02;;;;;;;36.03;18.60;;;;;;;5.70;100.00;102838.53;5032795;28;20040;-68
2023/04/17 04:50:27;;;;;;;36.20;18.27;;;;;;;5.72;100.00;102841.97;5031570;28;20033;-68
2023/04/17 04:52:52;;;;;;;38.65;18.60;;;;;;;5.73;100.00;102847.22;5032691;28;20040;-69
2023/04/17 04:55:18;;;;;;;42.53;18.95;;;;;;;5.75;100.00;102834.81;5032926;28;20033;-69
2023/04/17 04:57:44;;;;;;;44.72;20.05;;;;;;;5.76;100.00;102841.81;5032705;28;20152;-69
2023/04/17 05:00:12;;;;;;;37.75;18.75;;;;;;;5.77;100.00;102840.88;5033119;28;20037;-69
2023/04/17 05:02:37;;;;;;;38.80;18.25;;;;;;;5.78;100.00;102852.31;5032046;28;20034;-69
2023/04/17 05:05:03;;;;;;;41.53;20.15;;;;;;;5.81;100.00;102853.06;5032541;28;20474;-69
2023/04/17 05:07:28;;;;;;;42.97;19.77;;;;;;;5.83;100.00;102858.28;5031794;28;20479;-68
2023/04/17 05:09:54;;;;;;;49.17;20.00;;;;;;;5.84;100.00;102857.38;5032373;28;20026;-69
2023/04/17 05:12:19;;;;;;;44.70;20.55;;;;;;;5.85;100.00;102858.22;5032891;28;20040;-68
2023/04/17 05:14:46;;;;;;;44.53;19.90;;;;;;;5.85;100.00;102860.84;5032574;28;20072;-68
2023/04/17 05:17:14;;;;;;;47.45;20.17;;;;;;;5.86;100.00;102863.44;5031378;28;20087;-68
2023/04/17 05:19:40;;;;;;;41.00;19.05;;;;;;;5.88;100.00;102872.19;5032616;28;20535;-68
2023/04/17 05:22:05;;;;;;;41.50;19.33;;;;;;;5.89;100.00;102867.75;5014873;28;20140;-68
2023/04/17 05:24:31;;;;;;;44.42;20.63;;;;;;;5.91;100.00;102866.78;5032679;28;20473;-68
2023/04/17 05:26:57;;;;;;;42.28;20.67;;;;;;;5.93;100.00;102877.28;5032932;28;20162;-69
2023/04/17 05:29:24;;;;;;;41.13;19.38;;;;;;;5.93;100.00;102870.22;5032395;28;20124;-69
2023/04/17 05:31:49;;;;;;;42.13;19.33;;;;;;;5.95;100.00;102875.44;5032709;28;20033;-69
2023/04/17 05:34:15;;;;;;;42.40;20.23;;;;;;;5.97;100.00;102879.78;5032525;28;20029;-68
2023/04/17 05:36:40;;;;;;;40.47;19.23;;;;;;;5.98;100.00;102875.34;5032470;28;20072;-68
2023/04/17 05:39:06;;;;;;;40.53;19.00;;;;;;;6.02;100.00;102876.09;5031753;28;20053;-68
2023/04/17 05:41:32;;;;;;;38.60;19.80;;;;;;;6.03;100.00;102880.47;5032219;28;20046;-68
2023/04/17 05:43:57;;;;;;;40.47;20.90;;;;;;;6.06;100.00;102872.41;5030914;28;20179;-68
2023/04/17 05:46:23;;;;;;;40.25;19.60;;;;;;;6.10;100.00;102877.50;5032789;28;20057;-68
2023/04/17 05:48:48;;;;;;;39.33;19.38;;;;;;;6.11;100.00;102873.09;5031675;28;20129;-68
2023/04/17 05:51:13;;;;;;;38.20;20.25;;;;;;;6.14;100.00;102872.97;5032089;28;20382;-68
2023/04/17 05:53:39;;;;;;;42.05;20.27;;;;;;;6.18;100.00;102879.88;5032634;28;20061;-67
2023/04/17 05:56:04;;;;;;;40.47;19.60;;;;;;;6.19;100.00;102878.94;5032509;28;20037;-67
2023/04/17 05:58:29;;;;;;;43.70;20.52;;;;;;;6.22;100.00;102886.75;5031918;28;20038;-68
2023/04/17 06:00:56;;;;;;;38.55;20.40;;;;;;;6.24;100.00;102884.03;5032356;28;20120;-68
2023/04/17 06:03:22;;;;;;;39.20;20.40;;;;;;;6.26;100.00;102882.22;5032101;28;20067;-68
2023/04/17 06:05:47;;;;;;;36.78;18.90;;;;;;;6.28;100.00;102890.94;5032185;28;20038;-68
2023/04/17 06:08:12;;;;;;;39.67;19.85;;;;;;;6.29;100.00;102892.66;5031544;28;20025;-69
2023/04/17 06:10:38;;;;;;;43.85;20.20;;;;;;;6.29;100.00;102887.38;5032159;28;20028;-68
2023/04/17 06:13:03;;;;;;;34.67;19.05;;;;;;;6.31;100.00;102890.81;5032008;28;20398;-68
2023/04/17 06:15:28;;;;;;;30.13;19.13;;;;;;;6.35;100.00;102897.72;5032887;28;20037;-68
2023/04/17 06:17:54;;;;;;;35.72;19.08;;;;;;;6.40;100.00;102895.72;5035548;28;20348;-68
2023/04/17 06:20:19;;;;;;;34.67;18.80;;;;;;;6.46;100.00;102894.63;5035523;28;20120;-68
2023/04/17 06:22:45;;;;;;;39.38;19.63;;;;;;;6.52;100.00;102889.97;5035691;28;20053;-68
2023/04/17 06:25:11;;;;;;;38.22;19.85;;;;;;;6.63;100.00;102893.97;5035774;28;20163;-68
2023/04/17 06:27:37;;;;;;;36.38;21.02;;;;;;;6.68;100.00;102892.81;5035093;28;20048;-68
2023/04/17 06:30:03;;;;;;;34.58;19.15;;;;;;;6.75;100.00;102903.13;5033935;28;20487;-68
2023/04/17 06:32:28;;;;;;;35.50;19.83;;;;;;;6.77;100.00;102896.88;5034995;28;20041;-68
2023/04/17 06:34:54;;;;;;;36.42;20.58;;;;;;;6.81;100.00;102894.97;5034177;28;20083;-68
2023/04/17 06:37:19;;;;;;;34.05;18.98;;;;;;;6.81;100.00;102902.91;5035135;28;20185;-68
2023/04/17 06:39:45;;;;;;;36.53;20.00;;;;;;;6.81;100.00;102898.47;5033551;28;20187;-68
2023/04/17 06:42:10;;;;;;;37.30;21.05;;;;;;;6.84;100.00;102898.34;5033295;28;20041;-69
2023/04/17 06:44:36;;;;;;;33.50;19.40;;;;;;;6.87;100.00;102900.84;5034231;28;20061;-68
2023/04/17 06:47:02;;;;;;;42.15;21.88;;;;;;;6.89;100.00;102904.28;5034675;28;20033;-71
2023/04/17 06:49:30;;;;;;;33.33;19.25;;;;;;;6.94;100.00;102906.78;5035297;28;20117;-69
2023/04/17 06:51:56;;;;;;;38.42;19.25;;;;;;;7.01;100.00;102910.00;5035262;28;20124;-68
2023/04/17 06:54:21;;;;;;;33.42;19.10;;;;;;;7.05;100.00;102920.38;5034732;28;20094;-68
2023/04/17 06:56:46;;;;;;;37.22;21.13;;;;;;;7.06;100.00;102915.94;5034320;28;20450;-68
2023/04/17 06:59:12;;;;;;;36.80;21.13;;;;;;;7.11;100.00;102911.34;5034733;28;20037;-68
2023/04/17 07:01:39;;;;;;;32.08;20.40;;;;;;;7.19;100.00;102918.94;5033446;28;20041;-68
2023/04/17 07:04:04;;;;;;;38.53;20.92;;;;;;;7.30;100.00;102915.81;5034180;28;20044;-69
2023/04/17 07:06:32;;;;;;;36.05;20.35;;;;;;;7.38;100.00;102919.84;5034607;28;20037;-69
2023/04/17 07:08:58;;;;;;;34.03;20.20;;;;;;;7.40;100.00;102928.63;5034273;28;20034;-69
2023/04/17 07:11:24;;;;;;;38.72;20.88;;;;;;;7.44;100.00;102931.97;5034199;28;20470;-68
2023/04/17 07:13:49;;;;;;;37.63;20.48;;;;;;;7.51;100.00;102925.47;5034259;28;20029;-68
2023/04/17 07:16:15;;;;;;;34.45;20.20;;;;;;;7.54;100.00;102933.28;5034099;28;20112;-68
2023/04/17 07:18:40;;;;;;;32.05;20.20;;;;;;;7.57;100.00;102929.66;5034206;28;20033;-68
2023/04/17 07:21:05;;;;;;;32.30;20.17;;;;;;;7.59;100.00;102928.63;5034082;28;20042;-72
2023/04/17 07:23:31;;;;;;;34.08;20.67;;;;;;;7.69;100.00;102929.09;5032803;28;20060;-68
2023/04/17 07:25:56;;;;;;;36.92;20.50;;;;;;;7.80;100.00;102930.41;5033744;28;20047;-68
2023/04/17 07:28:22;;;;;;;36.05;20.20;;;;;;;7.87;100.00;102938.00;5033721;28;20116;-68
2023/04/17 07:30:47;;;;;;;32.33;19.48;;;;;;;7.97;100.00;102934.94;5033891;28;20087;-69
2023/04/17 07:33:12;;;;;;;32.90;18.40;;;;;;;8.07;100.00;102925.63;5033635;28;20033;-68
2023/04/17 07:35:38;;;;;;;29.17;18.63;;;;;;;8.16;100.00;102935.78;5033738;28;20037;-68
2023/04/17 07:38:04;;;;;;;34.35;20.17;;;;;;;8.19;100.00;102940.94;5033644;28;20467;-67
2023/04/17 07:40:30;;;;;;;30.13;19.00;;;;;;;8.27;100.00;102940.56;5031881;28;20083;-69
2023/04/17 07:42:56;;;;;;;28.30;18.52;;;;;;;8.37;100.00;102948.97;5033748;28;20032;-69
2023/04/17 07:45:22;;;;;;;32.30;20.10;;;;;;;8.45;100.00;102941.56;5033778;28;20433;-68
2023/04/17 07:47:50;;;;;;;30.35;18.85;;;;;;;8.53;100.00;102942.03;5033851;28;20029;-68
2023/04/17 07:50:15;;;;;;;27.83;18.63;;;;;;;8.58;100.00;102937.38;5033544;28;20037;-69
2023/04/17 07:52:40;;;;;;;33.63;19.95;;;;;;;8.61;100.00;102939.00;5032516;28;20585;-68
2023/04/17 07:55:06;;;;;;;27.33;17.90;;;;;;;8.68;100.00;102937.75;5033810;28;20387;-68
2023/04/17 07:57:32;;;;;;;34.72;19.13;;;;;;;8.73;100.00;102937.53;5033959;28;20399;-68
2023/04/17 07:59:57;;;;;;;31.35;19.13;;;;;;;8.79;100.00;102934.56;5033716;28;20040;-69
2023/04/17 08:02:22;;;;;;;32.78;20.25;;;;;;;8.82;100.00;102937.06;5032417;28;20040;-69
2023/04/17 08:04:48;;;;;;;37.58;19.55;;;;;;;8.79;100.00;102935.44;5033605;28;20382;-67
2023/04/17 08:07:13;;;;;;;34.78;20.08;;;;;;;8.72;100.00;102939.34;5016080;28;20079;-68
2023/04/17 08:09:39;;;;;;;35.75;21.20;;;;;;;8.72;100.00;102936.69;5033482;28;20448;-68
2023/04/17 08:12:05;;;;;;;34.38;21.42;;;;;;;8.71;100.00;102940.25;5033212;28;20065;-68
2023/04/17 08:14:30;;;;;;;31.13;19.77;;;;;;;8.79;100.00;102942.53;5033940;28;20132;-67
2023/04/17 08:16:56;;;;;;;32.13;20.35;;;;;;;8.89;100.00;102942.94;5033687;28;20418;-67
2023/04/17 08:19:21;;;;;;;34.15;20.38;;;;;;;8.97;100.00;102946.06;5033269;28;20402;-67
2023/04/17 08:21:47;;;;;;;31.85;20.55;;;;;;;9.10;100.00;102938.34;5033420;28;20041;-67
2023/04/17 08:24:13;;;;;;;31.77;19.63;;;;;;;9.22;100.00;102936.88;5033463;28;20034;-68
2023/04/17 08:26:38;;;;;;;30.50;19.77;;;;;;;9.32;100.00;102938.97;5033306;28;20029;-67
2023/04/17 08:29:03;;;;;;;30.65;19.67;;;;;;;9.38;100.00;102934.28;5033359;28;20413;-67
2023/04/17 08:31:30;;;;;;;28.95;19.02;;;;;;;9.62;100.00;102932.13;5033257;28;20029;-67
2023/04/17 08:33:56;;;;;;;29.55;19.05;;;;;;;9.90;100.00;102931.50;5033105;28;20025;-67
2023/04/17 08:36:21;;;;;;;27.77;18.40;;;;;;;10.07;100.00;102930.56;5032063;28;20036;-68
2023/04/17 08:38:47;;;;;;;29.73;18.50;;;;;;;10.26;100.00;102929.56;5032592;28;20370;-68
2023/04/17 08:41:19;;;;;;;33.78;19.38;;;;;;;10.45;100.00;102924.94;5033251;28;20061;-68
2023/04/17 08:43:48;;;;;;;30.77;20.15;;;;;;;10.62;100.00;102928.44;5033533;28;20029;-68
2023/04/17 08:46:14;;;;;;;34.17;19.35;;;;;;;10.72;100.00;102938.47;5032048;28;20021;-68
2023/04/17 08:48:39;;;;;;;30.58;19.98;;;;;;;10.79;100.00;102935.44;5032919;28;20025;-68
2023/04/17 08:51:05;;;;;;;33.95;19.55;;;;;;;10.82;100.00;102937.91;5033059;28;20059;-69
2023/04/17 08:53:30;;;;;;;33.72;20.40;;;;;;;10.74;100.00;102939.22;5031643;28;20025;-68
2023/04/17 08:56:02;;;;;;;31.90;19.27;;;;;;;10.90;100.00;102949.84;5031954;28;20068;-68
2023/04/17 08:58:31;;;;;;;30.65;19.67;;;;;;;10.99;100.00;102945.78;5031989;28;20029;-69
2023/04/17 09:01:09;;;;;;;30.65;20.00;;;;;;;10.99;100.00;102940.47;5032961;28;20065;-70
2023/04/17 09:03:48;;;;;;;34.30;19.63;;;;;;;10.85;100.00;102948.41;5032980;28;20112;-69
2023/04/17 09:06:14;;;;;;;33.20;20.45;;;;;;;10.83;100.00;102944.97;5033116;28;20025;-69
2023/04/17 09:08:57;;;;;;;34.30;21.10;;;;;;;10.84;100.00;102947.53;5032577;28;20087;-68
2023/04/17 09:11:22;;;;;;;30.65;19.88;;;;;;;11.05;100.00;102944.56;5032929;28;20438;-69
2023/04/17 09:13:48;;;;;;;36.15;20.52;;;;;;;11.08;100.00;102939.91;5033093;28;20053;-69
2023/04/17 09:16:18;;;;;;;29.10;20.63;;;;;;;11.03;100.00;102947.34;5015176;28;20036;-68
2023/04/17 09:18:48;;;;;;;32.23;21.97;;;;;;;11.14;100.00;102949.34;5032775;28;20146;-68
2023/04/17 09:21:17;;;;;;;30.75;19.10;;;;;;;11.36;100.00;102956.91;5033128;28;20030;-69
2023/04/17 09:23:55;;;;;;;30.23;19.20;;;;;;;11.62;100.00;102957.13;5032548;28;20048;-68
2023/04/17 09:26:25;;;;;;;30.13;18.17;;;;;;;11.77;100.00;102955.34;5032243;28;20024;-71
2023/04/17 09:29:10;;;;;;;31.90;19.58;;;;;;;11.77;100.00;102958.00;5033273;28;20021;-70
2023/04/17 09:31:37;;;;;;;38.78;19.45;;;;;;;11.73;100.00;102965.31;5032394;28;20033;-69
2023/04/17 09:34:12;;;;;;;30.00;19.67;;;;;;;11.65;100.00;102959.63;5032857;28;20056;-70
2023/04/17 09:36:40;;;;;;;31.27;18.60;;;;;;;11.56;100.00;102969.03;5032548;28;20493;-70
2023/04/17 09:39:23;;;;;;;28.52;19.08;;;;;;;11.66;100.00;102974.66;5032547;28;20383;-70
2023/04/17 09:41:49;;;;;;;29.38;20.15;;;;;;;11.64;100.00;102974.75;5031173;28;20030;-69
2023/04/17 09:44:26;;;;;;;28.08;19.17;;;;;;;11.52;100.00;102974.66;5032528;28;20037;-70
2023/04/17 09:46:53;;;;;;;32.78;20.58;;;;;;;11.33;100.00;102967.78;5032391;28;20034;-70
2023/04/17 09:49:24;;;;;;;32.35;20.13;;;;;;;11.33;100.00;102969.56;5033845;28;20116;-70
2023/04/17 09:51:51;;;;;;;;;;;;;;;11.20;100.00;102970.31;5036484;28;20340;-70
2023/04/17 09:54:19;;;;;;;31.10;19.92;;;;;;;11.16;100.00;102976.75;5036707;28;19913;-70
2023/04/17 09:56:46;;;;;;;30.00;20.13;;;;;;;11.15;100.00;102982.16;5034742;28;20038;-70
2023/04/17 09:59:11;;;;;;;29.40;20.40;;;;;;;11.21;100.00;102974.69;5036053;28;20122;-70
2023/04/17 10:01:37;;;;;;;27.63;18.83;;;;;;;11.44;100.00;102972.44;5035130;28;20072;-70
2023/04/17 10:04:03;;;;;;;27.13;18.70;;;;;;;11.77;100.00;102977.50;5036351;28;20040;-70
2023/04/17 10:06:30;;;;;;;25.52;17.60;;;;;;;12.39;100.00;102973.69;5035995;28;20037;-71
2023/04/17 10:08:56;;;;;;;27.60;17.77;;;;;;;12.97;100.00;102976.16;5035794;28;20037;-70
2023/04/17 10:11:24;;;;;;;25.45;18.13;;;;;;;13.28;100.00;102979.44;5036615;28;20116;-70
2023/04/17 10:14:02;;;;;;;24.35;16.85;;;;;;;13.30;100.00;102980.16;5035856;28;20044;-70
2023/04/17 10:16:38;;;;;;;26.45;17.90;;;;;;;13.10;100.00;102976.19;5036073;28;20029;-70
2023/04/17 10:19:32;;;;;;;26.02;17.73;;;;;;;12.62;100.00;102977.53;5035342;28;20089;-69
2023/04/17 10:22:13;;;;;;;28.77;19.20;;;;;;;12.40;100.00;102967.38;5035700;28;20104;-69
2023/04/17 10:24:39;;;;;;;29.25;18.67;;;;;;;12.35;100.00;102970.34;5035329;28;20036;-71
2023/04/17 10:27:25;;;;;;;28.25;18.80;;;;;;;12.53;100.00;102970.13;5035661;28;20428;-71
2023/04/17 10:29:58;;;;;;;35.05;20.38;;;;;;;12.59;100.00;102967.03;5028256;28;20042;-68
2023/04/17 10:32:26;;;;;;;30.33;19.67;;;;;;;12.59;100.00;102977.72;5035221;28;20034;-68
2023/04/17 10:34:56;;;;;;;30.92;19.02;;;;;;;12.47;100.00;102975.88;5035062;28;20044;-69
2023/04/17 10:37:50;;;;;;;28.40;19.58;;;;;;;12.76;100.00;102967.75;5035757;28;20045;-69
2023/04/17 10:40:20;;;;;;;25.88;17.98;;;;;;;13.96;100.00;102964.03;5035025;28;20056;-69
2023/04/17 10:43:06;;;;;;;27.23;16.92;;;;;;;16.13;100.00;102965.56;5034526;28;20367;-69
2023/04/17 10:45:56;;;;;;;22.55;16.92;;;;;;;17.73;96.35;102964.72;5035575;28;20037;-70
2023/04/17 10:48:49;;;;;;;31.60;17.52;;;;;;;18.44;76.20;102961.16;5035007;28;20037;-69
2023/04/17 10:51:21;;;;;;;23.70;17.17;;;;;;;19.03;67.59;102953.94;5035007;28;20083;-70
2023/04/17 10:54:05;;;;;;;25.02;17.30;;;;;;;18.55;66.46;102952.09;5034892;28;20104;-69
2023/04/17 10:56:40;;;;;;;32.70;16.50;;;;;;;17.34;74.05;102953.78;5034778;28;20091;-70
2023/04/17 10:59:10;;;;;;;23.63;16.17;;;;;;;16.51;82.91;102953.50;5034911;28;20049;-69
2023/04/17 11:01:35;;;;;;;23.40;15.50;;;;;;;16.04;96.71;102956.41;5034162;28;20083;-69
2023/04/17 11:04:01;;;;;;;22.45;16.40;;;;;;;16.87;86.20;102949.63;5034740;28;20438;-69
2023/04/17 11:06:31;;;;;;;25.33;15.60;;;;;;;17.52;84.27;102946.78;5034813;28;20029;-69